Aérodrome :
LOGIN :

S'inscrire | Disclaimer

   EN    FR    IT 

 










Légende :    VFR   VFR Marginal   IFR   IFR Intensif   IFR Très Intensif
Visi : 
Plafond : 
>= 8 km
>= 3000ft
5 à 8 km
1000 à 3000 ft
1500m à 5 km
500 à 1000 ft
800 à 1500m
200 à 500 ft
< 800m
< 200 ft
Symboles :   Orages  Brouillard  Fortes neiges  Fortes précipitations  Vent > 20 kt
SIGMETs :   Divers  Orages  Givrage  Turbulence  Onde Orograph.  Cendres Volcan.







- Altitude de l'aérodrome : 461 ft
- Code IATA : WIE


ETOU - Wiesbaden Army

DERNIER METAR :
  • 212156Z AUTO 00000KT 9999 SCT110 OVC130 19/16 A2991 RMK AO2 SLP126 T01910159 $

METARs EXPIRÉS :
  • 212056Z AUTO 27003KT 9999 BKN110 BKN130 18/16 A2990 RMK AO2 SLP123 T01830155 53006 $
  • 211956Z AUTO 00000KT 9999 CLR 20/16 A2989 RMK AO2 SLP119 T01970161 $

TAF TAF ETOU
Valide du 20 à 19h jusqu'au 22 à 01h UTC


201903Z 2019/2201 VRB06KT 9999 SCT070 BKN100 QNH2980INS
BECMG 2115/2116 27009KT 8000 -SHRA SCT050 BKN070 QNH2982INS
TEMPO 2116/2119 27010G20KT 6000 -TSRA SCT050CB BKN070
BECMG 2118/2119 VRB06KT 9999 NSW FEW060 QNH2984INS TX31/2113Z TN16/2103Z LAST NO AMDS AFT 2019 NEXT 2303
Pas de NOTAMs connus pour ce terrain.



MET'MAP, la Météo Aéronautique d'un coup d'oeil ! - Copyright ORBIFLY Décembre 2007 - Disclaimer

ORBIFLY MET'MAP TEAM :

Programmation & Développement : Alexandra Zaïnal
Conception & Développement : Baudouin d'Aumeries
Co-Programmation & Développement : Marc-Olivier Méhu
Soutien technique & logistique : Manuel Goepfert

Contact : metmap@orbifly.com




SOURCES & CREDITS :

   NOAA